createdAt,value
2023-05-10T00:00:55.876Z,97.7351
2023-05-10T00:01:56.873Z,97.5932
2023-05-10T00:02:58.366Z,97.3835
2023-05-10T00:05:59.952Z,97.2599
2023-05-10T00:12:05.393Z,97.3973
2023-05-10T00:13:06.604Z,97.3136
2023-05-10T00:14:07.046Z,97.3380
2023-05-10T00:15:08.390Z,97.3922
2023-05-10T00:16:08.793Z,97.3267
2023-05-10T00:17:08.826Z,97.3499
2023-05-10T00:18:09.512Z,97.3753
2023-05-10T00:19:09.701Z,97.4174
2023-05-10T00:20:10.126Z,97.4157
2023-05-10T00:21:10.334Z,97.4062
2023-05-10T00:22:11.549Z,97.4378
2023-05-10T00:23:12.935Z,97.5228
2023-05-10T00:24:13.385Z,97.5700
2023-05-10T00:25:13.331Z,97.6409
2023-05-10T00:26:13.292Z,97.6028
2023-05-10T00:27:14.299Z,97.6448
2023-05-10T00:28:15.738Z,97.6782
2023-05-10T00:30:16.547Z,97.6139
2023-05-10T00:31:16.726Z,97.6211
2023-05-10T00:32:17.604Z,97.6128
2023-05-10T00:33:17.881Z,97.4133
2023-05-10T00:34:19.132Z,97.2880
2023-05-10T00:35:20.241Z,97.1659
2023-05-10T00:36:20.841Z,96.9450
2023-05-10T00:37:21.119Z,96.9833
2023-05-10T00:38:21.934Z,97.1019
2023-05-10T00:39:21.989Z,97.2158
2023-05-10T00:40:23.338Z,97.2850
2023-05-10T00:41:23.812Z,97.4136
2023-05-10T00:42:24.452Z,97.4837
2023-05-10T00:43:24.805Z,97.5789
2023-05-10T00:44:25.697Z,97.6379
2023-05-10T00:45:26.177Z,97.6236
2023-05-10T00:46:26.483Z,97.6914
2023-05-10T00:51:30.059Z,97.7315
2023-05-10T00:52:31.148Z,97.7639
2023-05-10T00:53:32.574Z,97.7812
2023-05-10T00:54:32.446Z,97.7374
2023-05-10T00:55:33.659Z,97.6630
2023-05-10T00:56:34.886Z,97.4797
2023-05-10T00:57:34.909Z,97.3909
2023-05-10T00:58:36.146Z,97.3730
2023-05-10T00:59:37.417Z,97.3708
2023-05-10T01:00:37.390Z,97.3618
2023-05-10T01:01:38.881Z,97.2618
2023-05-10T01:02:39.100Z,97.2775
2023-05-10T01:03:40.020Z,97.3037
2023-05-10T01:04:40.140Z,97.3292
2023-05-10T01:05:40.305Z,97.3918
2023-05-10T01:06:41.626Z,97.4545
2023-05-10T01:07:41.950Z,97.3909
2023-05-10T01:08:43.307Z,97.2150
2023-05-10T01:09:44.788Z,97.1701
2023-05-10T01:10:46.087Z,97.1017
2023-05-10T01:11:48.172Z,97.1378
2023-05-10T01:12:48.861Z,97.1822
2023-05-10T01:13:49.288Z,97.2237
2023-05-10T01:14:49.547Z,97.2991
2023-05-10T01:15:51.248Z,97.2826
2023-05-10T01:16:51.527Z,97.2044
2023-05-10T01:17:51.795Z,97.2503
2023-05-10T01:18:51.842Z,97.1782
2023-05-10T01:19:52.069Z,97.1688
2023-05-10T01:20:52.572Z,97.2031
2023-05-10T01:21:53.720Z,97.2396
2023-05-10T01:22:55.214Z,97.2583
2023-05-10T01:23:56.205Z,97.3220
2023-05-10T01:24:57.578Z,97.2722
2023-05-10T01:25:57.631Z,97.2420
2023-05-10T01:26:59.025Z,97.1603
2023-05-10T01:28:00.333Z,97.1292
2023-05-10T01:29:02.024Z,97.1136
2023-05-10T01:30:14.840Z,97.1669
2023-05-10T01:31:03.190Z,97.0400
2023-05-10T01:32:03.498Z,96.8843
2023-05-10T01:33:04.942Z,96.9432
2023-05-10T01:34:05.198Z,97.0996
2023-05-10T01:35:05.299Z,97.1420
2023-05-10T01:36:06.530Z,97.1490
2023-05-10T01:37:07.310Z,97.1155
2023-05-10T01:38:07.726Z,97.0971
2023-05-10T01:39:07.974Z,97.0806
2023-05-10T01:40:08.049Z,97.1089
2023-05-10T01:41:08.785Z,97.1682
2023-05-10T01:42:09.376Z,97.1368
2023-05-10T01:43:09.752Z,97.0404
2023-05-10T01:44:10.164Z,97.0115
2023-05-10T01:45:10.801Z,97.0724
2023-05-10T01:46:11.022Z,97.1189
2023-05-10T01:47:11.803Z,97.0792
2023-05-10T01:48:12.379Z,96.9401
2023-05-10T01:49:13.112Z,96.8719
2023-05-10T01:50:13.433Z,96.9686
2023-05-10T01:51:14.157Z,97.0972
2023-05-10T01:52:15.657Z,97.1393
2023-05-10T01:53:16.245Z,97.1476
2023-05-10T01:54:16.449Z,97.2161
2023-05-10T01:55:16.828Z,97.2840
2023-05-10T01:56:17.202Z,97.2903
2023-05-10T01:57:17.491Z,97.3379
2023-05-10T01:58:17.460Z,97.4873
2023-05-10T01:59:17.671Z,97.5533
2023-05-10T02:00:18.084Z,97.5826
2023-05-10T02:01:19.166Z,97.5246
2023-05-10T02:02:19.452Z,97.4869
2023-05-10T02:03:20.461Z,97.5188
2023-05-10T02:04:21.857Z,97.5494
2023-05-10T02:05:22.385Z,97.6254
2023-05-10T02:06:22.677Z,97.5926
2023-05-10T02:07:22.857Z,97.5118
2023-05-10T02:08:23.391Z,97.5486
2023-05-10T02:09:23.846Z,97.6210
2023-05-10T02:10:24.748Z,97.7209
2023-05-10T02:11:25.153Z,97.8322
2023-05-10T02:12:25.877Z,97.9187
2023-05-10T02:13:26.377Z,97.9394
2023-05-10T02:14:28.031Z,97.9659
2023-05-10T02:15:28.716Z,98.0153
2023-05-10T02:16:30.528Z,98.0027
2023-05-10T02:18:30.298Z,97.9575
2023-05-10T02:19:31.108Z,98.0177
2023-05-10T02:20:32.092Z,98.0744
2023-05-10T02:21:32.560Z,98.1086
2023-05-10T02:22:33.809Z,98.1123
2023-05-10T02:23:35.156Z,98.0738
2023-05-10T02:24:36.129Z,98.0238
2023-05-10T02:25:38.533Z,98.0451
2023-05-10T02:26:38.391Z,98.0654
2023-05-10T02:27:38.933Z,98.1205
2023-05-10T02:28:39.102Z,98.1532
2023-05-10T02:29:40.387Z,98.1832
2023-05-10T02:30:41.251Z,98.2259
2023-05-10T02:31:42.919Z,98.2151
2023-05-10T02:32:44.332Z,98.2166
2023-05-10T02:33:44.051Z,98.2753
2023-05-10T02:34:45.099Z,98.3322
2023-05-10T02:35:45.632Z,98.3755
2023-05-10T02:36:45.844Z,98.3969
2023-05-10T02:37:47.138Z,98.3838
2023-05-10T02:38:47.804Z,98.3754
2023-05-10T02:39:48.556Z,98.3714
2023-05-10T02:40:49.643Z,98.3751
2023-05-10T02:41:50.668Z,98.3959
2023-05-10T02:42:51.393Z,98.3639
2023-05-10T02:43:52.842Z,98.3013
2023-05-10T02:44:52.529Z,98.2863
2023-05-10T02:45:53.269Z,98.2915
2023-05-10T02:46:54.791Z,98.3368
2023-05-10T02:47:55.296Z,98.3721
2023-05-10T02:48:55.260Z,98.3623
2023-05-10T02:49:56.106Z,98.3531
2023-05-10T02:50:55.802Z,98.3140
2023-05-10T02:51:57.333Z,98.2931
2023-05-10T02:52:58.123Z,98.2787
2023-05-10T02:53:58.351Z,98.2983
2023-05-10T02:54:58.948Z,98.3017
2023-05-10T02:56:01.158Z,98.3036
2023-05-10T02:57:02.402Z,98.3196
2023-05-10T02:58:02.034Z,98.3317
2023-05-10T02:59:02.279Z,98.3485
2023-05-10T03:00:02.874Z,98.3900
2023-05-10T03:01:04.801Z,98.4110
2023-05-10T03:02:05.732Z,98.4489
2023-05-10T03:03:05.759Z,98.4786
2023-05-10T03:04:06.632Z,98.5087
2023-05-10T03:05:06.877Z,98.5339
2023-05-10T03:06:07.722Z,98.5642
2023-05-10T03:07:08.229Z,98.5773
2023-05-10T03:08:08.697Z,98.5763
2023-05-10T03:09:11.273Z,98.5700
2023-05-10T03:10:10.181Z,98.5754
2023-05-10T03:11:10.338Z,98.5825
2023-05-10T03:12:12.077Z,98.5587
2023-05-10T03:13:12.847Z,98.5507
2023-05-10T03:14:14.508Z,98.5695
2023-05-10T03:16:44.925Z,98.6232
2023-05-10T03:17:43.684Z,98.6199
2023-05-10T03:18:43.837Z,98.6054
2023-05-10T03:19:44.668Z,98.5677
2023-05-10T03:20:45.096Z,98.5515
2023-05-10T03:21:45.489Z,98.5484
2023-05-10T03:22:46.056Z,98.5416
2023-05-10T03:23:46.940Z,98.5016
2023-05-10T03:24:47.830Z,98.4813
2023-05-10T03:25:48.448Z,98.5040
2023-05-10T03:26:48.533Z,98.5121
2023-05-10T03:27:49.665Z,98.5102
2023-05-10T03:28:50.631Z,98.5144
2023-05-10T03:29:51.033Z,98.4977
2023-05-10T03:30:51.668Z,98.4811
2023-05-10T03:31:52.248Z,98.4780
2023-05-10T03:32:52.645Z,98.4914
2023-05-10T03:33:53.239Z,98.5070
2023-05-10T03:34:55.671Z,98.5236
2023-05-10T03:37:57.499Z,98.6152
2023-05-10T03:38:58.375Z,98.6272
2023-05-10T03:39:57.353Z,98.6144
2023-05-10T03:40:58.849Z,98.6200
2023-05-10T03:41:58.549Z,98.6358
2023-05-10T03:42:59.037Z,98.6644
2023-05-10T03:44:00.057Z,98.6894
2023-05-10T03:44:59.880Z,98.7039
2023-05-10T03:46:00.397Z,98.7379
2023-05-10T03:47:02.272Z,98.7638
2023-05-10T03:48:01.997Z,98.7746
2023-05-10T03:49:03.292Z,98.7792
2023-05-10T03:50:02.685Z,98.7797
2023-05-10T03:51:03.871Z,98.7601
2023-05-10T03:52:05.489Z,98.7431
2023-05-10T03:54:06.133Z,98.7920
2023-05-10T03:55:05.980Z,98.8115
2023-05-10T03:56:06.732Z,98.8233
2023-05-10T03:57:07.322Z,98.8249
2023-05-10T03:58:07.583Z,98.8187
2023-05-10T03:59:07.827Z,98.8336
2023-05-10T04:00:11.265Z,98.8458
2023-05-10T04:01:09.735Z,98.8676
2023-05-10T04:02:10.601Z,98.8917
2023-05-10T04:03:11.044Z,98.9214
2023-05-10T04:04:11.820Z,98.9481
2023-05-10T04:09:14.869Z,99.0315
2023-05-10T04:10:16.026Z,99.0456
2023-05-10T04:11:16.307Z,99.0527
2023-05-10T04:12:16.359Z,99.0666
2023-05-10T04:13:18.002Z,99.0623
2023-05-10T04:14:18.391Z,99.0357
2023-05-10T04:15:19.163Z,99.0062
2023-05-10T04:16:19.287Z,98.9701
2023-05-10T04:17:21.724Z,98.9256
2023-05-10T04:18:23.011Z,98.8780
2023-05-10T04:19:23.700Z,98.8121
2023-05-10T04:20:24.429Z,98.7741
2023-05-10T04:21:25.294Z,98.7533
2023-05-10T04:22:26.248Z,98.7358
2023-05-10T04:23:27.593Z,98.7127
2023-05-10T04:24:29.191Z,98.6682
2023-05-10T04:25:30.322Z,98.6032
2023-05-10T04:26:30.880Z,98.5318
2023-05-10T04:27:31.761Z,98.5468
2023-05-10T04:28:31.925Z,98.4797
2023-05-10T04:29:32.397Z,98.4279
2023-05-10T04:30:32.758Z,98.3672
2023-05-10T04:34:36.517Z,98.3683
2023-05-10T04:35:38.505Z,98.3741
2023-05-10T04:39:42.492Z,98.4255
2023-05-10T04:40:42.161Z,98.3843
2023-05-10T04:41:42.457Z,98.3281
2023-05-10T04:42:42.589Z,98.3201
2023-05-10T04:43:43.617Z,98.2536
2023-05-10T04:44:44.716Z,98.1501
2023-05-10T04:50:48.962Z,97.7869
2023-05-10T04:51:49.544Z,97.7878
2023-05-10T04:52:49.943Z,97.7470
2023-05-10T04:54:05.254Z,97.6767
2023-05-10T04:54:56.409Z,97.4896
2023-05-10T04:55:57.881Z,97.4131
2023-05-10T04:57:00.066Z,97.3439
2023-05-10T04:58:02.162Z,97.2424
2023-05-10T04:59:03.558Z,97.1898
2023-05-10T05:00:04.315Z,97.0961
2023-05-10T05:01:05.317Z,97.1015
2023-05-10T05:02:06.431Z,97.1510
2023-05-10T05:03:08.843Z,97.2059
2023-05-10T05:04:10.486Z,97.1842
2023-05-10T05:05:11.255Z,97.1669
2023-05-10T05:06:13.472Z,97.1728
2023-05-10T05:07:14.877Z,97.2201
2023-05-10T05:08:15.793Z,97.3105
2023-05-10T05:09:16.527Z,97.3571
2023-05-10T05:10:18.295Z,97.3186
2023-05-10T05:11:18.508Z,97.1455
2023-05-10T05:12:19.313Z,97.0099
2023-05-10T05:13:19.835Z,96.9303
2023-05-10T05:14:19.939Z,96.8374
2023-05-10T05:15:20.125Z,96.6352
2023-05-10T05:16:20.983Z,96.5862
2023-05-10T05:22:26.648Z,96.6065
2023-05-10T05:23:28.080Z,96.6397
2023-05-10T05:24:28.396Z,96.6464
2023-05-10T05:25:28.814Z,96.5218
2023-05-10T05:26:29.355Z,96.5699
2023-05-10T05:27:31.189Z,96.5958
2023-05-10T05:28:32.294Z,96.6506
2023-05-10T05:29:33.667Z,96.7691
2023-05-10T05:30:35.144Z,96.9973
2023-05-10T05:31:36.732Z,97.0823
2023-05-10T05:32:38.512Z,97.0257
2023-05-10T05:33:39.234Z,96.9462
2023-05-10T05:34:39.962Z,96.9916
2023-05-10T05:35:41.301Z,96.9651
2023-05-10T05:36:42.615Z,96.9774
2023-05-10T05:37:42.998Z,97.0571
2023-05-10T05:38:43.528Z,97.0357
2023-05-10T05:39:44.226Z,96.9371
2023-05-10T05:40:44.918Z,96.9372
2023-05-10T05:41:44.954Z,96.9726
2023-05-10T05:42:45.666Z,96.8138
2023-05-10T05:43:45.845Z,96.5490
2023-05-10T05:44:50.651Z,96.5566
2023-05-10T05:45:48.114Z,96.5982
2023-05-10T05:48:48.071Z,96.2859
2023-05-10T05:49:52.451Z,96.1905
2023-05-10T05:50:51.053Z,96.1594
2023-05-10T05:51:53.457Z,96.1575
2023-05-10T05:53:54.102Z,96.0407
2023-05-10T05:54:54.345Z,95.8764
2023-05-10T05:55:54.710Z,95.5818
2023-05-10T05:56:57.660Z,95.4869
2023-05-10T05:59:58.490Z,95.5572
2023-05-10T06:03:59.862Z,95.2560
2023-05-10T06:04:59.890Z,95.1881
2023-05-10T06:06:01.208Z,95.1131
2023-05-10T06:07:03.154Z,94.9845
2023-05-10T06:08:04.708Z,94.9161
2023-05-10T06:09:05.324Z,95.1537
2023-05-10T06:10:05.618Z,95.3442
2023-05-10T06:11:05.820Z,95.3393
2023-05-10T06:12:07.959Z,95.0379
2023-05-10T06:13:10.445Z,95.1434
2023-05-10T06:14:11.361Z,95.2615
2023-05-10T06:15:13.759Z,95.3181
2023-05-10T06:16:15.070Z,95.2903
2023-05-10T06:17:16.239Z,95.1966
2023-05-10T06:18:16.908Z,95.0791
2023-05-10T06:19:20.693Z,95.1639
2023-05-10T06:21:18.842Z,95.1105
2023-05-10T06:22:19.240Z,94.9961
2023-05-10T06:23:20.768Z,94.2141
2023-05-10T06:24:21.131Z,93.4808
2023-05-10T06:25:22.332Z,92.7491
2023-05-10T06:26:23.969Z,92.9308
2023-05-10T06:27:24.882Z,93.1551
2023-05-10T06:28:26.544Z,93.2546
2023-05-10T06:29:27.191Z,93.4080
2023-05-10T06:32:27.596Z,92.2185
2023-05-10T06:33:28.261Z,91.1666
2023-05-10T06:34:29.548Z,90.5239
2023-05-10T06:35:30.650Z,90.3708
2023-05-10T06:36:31.384Z,90.4534
2023-05-10T06:37:31.960Z,90.9085
2023-05-10T06:38:32.556Z,90.6556
2023-05-10T06:39:33.198Z,90.9517
2023-05-10T06:40:33.695Z,90.4276
2023-05-10T06:41:34.286Z,90.4289
2023-05-10T06:42:34.963Z,90.8425
2023-05-10T06:43:35.530Z,91.3199
2023-05-10T06:44:35.976Z,91.5042
2023-05-10T06:45:37.094Z,91.8348
2023-05-10T06:46:37.682Z,92.1768
2023-05-10T06:47:40.678Z,92.2494
2023-05-10T06:48:41.321Z,92.0709
2023-05-10T06:49:41.669Z,92.1826
2023-05-10T06:50:42.333Z,92.3498
2023-05-10T06:51:43.041Z,92.3618
2023-05-10T06:52:44.054Z,92.5511
2023-05-10T06:53:44.706Z,92.8294
2023-05-10T06:54:45.127Z,92.8613
2023-05-10T06:55:46.232Z,92.3792
2023-05-10T06:56:47.092Z,92.2476
2023-05-10T06:57:47.339Z,91.7338
2023-05-10T06:58:48.092Z,91.7906
2023-05-10T06:59:49.064Z,91.8433
2023-05-10T07:00:49.862Z,91.8856
2023-05-10T07:01:50.295Z,92.0586
2023-05-10T07:02:51.285Z,92.0586
2023-05-10T07:03:52.153Z,92.0582
2023-05-10T07:04:53.070Z,92.1772
2023-05-10T07:05:54.015Z,92.1562
2023-05-10T07:06:54.191Z,91.9893
2023-05-10T07:07:55.404Z,91.8987
2023-05-10T07:08:55.844Z,92.0014
2023-05-10T07:09:56.384Z,92.0072
2023-05-10T07:10:57.095Z,91.8480
2023-05-10T07:11:58.081Z,91.4873
2023-05-10T07:12:58.727Z,91.4676
2023-05-10T07:13:59.006Z,90.9977
2023-05-10T07:14:59.473Z,90.6236
2023-05-10T07:16:00.723Z,90.3708
2023-05-10T07:17:01.696Z,90.5505
2023-05-10T07:18:02.464Z,90.4951
2023-05-10T07:19:03.327Z,90.3468
2023-05-10T07:20:04.341Z,90.6173
2023-05-10T07:21:04.957Z,90.9246
2023-05-10T07:22:05.761Z,91.1425
2023-05-10T07:23:06.518Z,90.6773
2023-05-10T07:24:06.849Z,90.1826
2023-05-10T07:25:07.270Z,90.1852
2023-05-10T07:26:07.869Z,90.1349
2023-05-10T07:27:08.612Z,90.1058
2023-05-10T07:28:09.253Z,90.1260
2023-05-10T07:29:09.640Z,89.9774
2023-05-10T07:30:10.261Z,89.3388
2023-05-10T07:31:11.191Z,89.2816
2023-05-10T07:32:12.138Z,89.5124
2023-05-10T07:33:13.006Z,89.4914
2023-05-10T07:34:13.610Z,89.1467
2023-05-10T07:35:14.394Z,89.5690
2023-05-10T07:36:15.094Z,89.7224
2023-05-10T07:37:15.659Z,89.7331
2023-05-10T07:38:16.264Z,89.7961
2023-05-10T07:39:26.593Z,89.5414
2023-05-10T07:40:21.288Z,89.2564
2023-05-10T07:41:21.635Z,89.2323
2023-05-10T07:42:21.786Z,89.2718
2023-05-10T07:43:22.639Z,89.5798
2023-05-10T07:44:23.788Z,89.9354
2023-05-10T07:45:24.152Z,90.3432
2023-05-10T07:46:24.532Z,90.3880
2023-05-10T07:47:25.056Z,90.5479
2023-05-10T07:48:25.731Z,90.1210
2023-05-10T07:49:26.727Z,89.2454
2023-05-10T07:50:27.902Z,89.3122
2023-05-10T07:51:29.120Z,89.3737
2023-05-10T07:52:30.277Z,89.2039
2023-05-10T07:53:31.379Z,89.8330
2023-05-10T07:54:31.919Z,89.8137
2023-05-10T07:55:32.907Z,89.4546
2023-05-10T07:56:33.515Z,88.8975
2023-05-10T07:57:33.701Z,88.6053
2023-05-10T07:58:34.825Z,88.4390
2023-05-10T07:59:35.091Z,87.7123
2023-05-10T08:00:35.837Z,87.1687
2023-05-10T08:01:36.404Z,87.2030
2023-05-10T08:02:37.698Z,86.5341
2023-05-10T08:03:38.044Z,86.1282
2023-05-10T08:04:39.323Z,86.3020
2023-05-10T08:05:39.157Z,86.2971
2023-05-10T08:06:39.779Z,86.4271
2023-05-10T08:07:40.831Z,86.4315
2023-05-10T08:08:41.555Z,86.3829
2023-05-10T08:09:42.224Z,85.8125
2023-05-10T08:10:42.820Z,85.8100
2023-05-10T08:11:44.062Z,86.0032
2023-05-10T08:12:44.679Z,85.6943
2023-05-10T08:13:45.156Z,85.9323
2023-05-10T08:14:46.211Z,85.8326
2023-05-10T08:15:46.852Z,85.8599
2023-05-10T08:16:47.909Z,85.5180
2023-05-10T08:17:48.405Z,85.6510
2023-05-10T08:18:48.553Z,85.8241
2023-05-10T08:19:48.548Z,85.9222
2023-05-10T08:20:49.588Z,85.9958
2023-05-10T08:21:50.768Z,86.0741
2023-05-10T08:22:51.955Z,85.9878
2023-05-10T08:23:51.569Z,85.1336
2023-05-10T08:24:52.211Z,85.2087
2023-05-10T08:25:53.380Z,85.0905
2023-05-10T08:26:53.738Z,85.2582
2023-05-10T08:27:54.193Z,85.5371
2023-05-10T08:28:54.718Z,84.1100
2023-05-10T08:29:54.874Z,83.7475
2023-05-10T08:30:55.202Z,84.3169
2023-05-10T08:31:56.217Z,84.0524
2023-05-10T08:32:56.830Z,83.4360
2023-05-10T08:33:57.718Z,82.9963
2023-05-10T08:34:58.470Z,83.2445
2023-05-10T08:35:58.245Z,83.1067
2023-05-10T08:36:58.684Z,83.3949
2023-05-10T08:37:58.867Z,83.1002
2023-05-10T08:38:59.327Z,81.8924
2023-05-10T08:39:59.528Z,81.0765
2023-05-10T08:41:00.434Z,81.2844
2023-05-10T08:42:00.839Z,81.4909
2023-05-10T08:43:01.700Z,81.9949
2023-05-10T08:44:02.405Z,82.0846
2023-05-10T08:45:03.359Z,82.5373
2023-05-10T08:46:03.972Z,82.0109
2023-05-10T08:47:04.082Z,81.4904
2023-05-10T08:48:04.981Z,81.1852
2023-05-10T08:49:05.806Z,81.4957
2023-05-10T08:50:06.396Z,81.3331
2023-05-10T08:51:07.163Z,80.6232
2023-05-10T08:52:07.958Z,80.2795
2023-05-10T08:53:08.332Z,80.4463
2023-05-10T08:54:08.946Z,80.7982
2023-05-10T08:55:09.600Z,80.7243
2023-05-10T08:56:10.308Z,80.6305
2023-05-10T08:57:11.386Z,79.9755
2023-05-10T08:58:12.133Z,79.8658
2023-05-10T08:59:12.839Z,80.2643
2023-05-10T09:00:13.602Z,79.6393
2023-05-10T09:01:14.201Z,79.7051
2023-05-10T09:02:16.619Z,79.4453
2023-05-10T09:03:15.394Z,80.0205
2023-05-10T09:04:16.173Z,79.7487
2023-05-10T09:05:16.690Z,79.1290
2023-05-10T09:06:16.977Z,79.2529
2023-05-10T09:07:17.545Z,79.2294
2023-05-10T09:08:18.016Z,78.7637
2023-05-10T09:09:18.780Z,78.9088
2023-05-10T09:10:19.361Z,79.3320
2023-05-10T09:11:19.960Z,79.1833
2023-05-10T09:12:20.477Z,79.5094
2023-05-10T09:13:21.427Z,79.9120
2023-05-10T09:14:22.120Z,79.6432
2023-05-10T09:15:22.780Z,79.2625
2023-05-10T09:16:22.877Z,79.5823
2023-05-10T09:17:23.826Z,79.8638
2023-05-10T09:18:27.300Z,79.9289
2023-05-10T09:19:24.861Z,80.0415
2023-05-10T09:20:24.867Z,79.7777
2023-05-10T09:21:25.291Z,79.8326
2023-05-10T09:22:26.011Z,79.7620
2023-05-10T09:23:26.484Z,79.7633
2023-05-10T09:24:27.377Z,79.9626
2023-05-10T09:25:28.051Z,80.4604
2023-05-10T09:26:28.829Z,80.8126
2023-05-10T09:27:29.318Z,80.6824
2023-05-10T09:28:30.057Z,80.8201
2023-05-10T09:29:30.315Z,80.3374
2023-05-10T09:30:31.183Z,80.5351
2023-05-10T09:31:32.461Z,80.7619
2023-05-10T09:32:33.063Z,81.0126
2023-05-10T09:33:33.847Z,80.7226
2023-05-10T09:34:34.522Z,79.7072
2023-05-10T09:35:34.841Z,78.9129
2023-05-10T09:36:35.358Z,78.6820
2023-05-10T09:37:36.236Z,78.8823
2023-05-10T09:38:36.747Z,78.9142
2023-05-10T09:39:37.186Z,78.6607
2023-05-10T09:40:37.803Z,78.9521
2023-05-10T09:41:38.388Z,79.2806
2023-05-10T09:42:39.007Z,79.8517
2023-05-10T09:43:39.390Z,80.3454
2023-05-10T09:44:40.074Z,80.7839
2023-05-10T09:45:41.066Z,80.5858
2023-05-10T09:46:42.085Z,80.1166
2023-05-10T09:47:42.539Z,80.5511
2023-05-10T09:48:43.322Z,79.6530
2023-05-10T09:49:43.828Z,78.3112
2023-05-10T09:50:44.522Z,78.2820
2023-05-10T09:51:45.255Z,78.6975
2023-05-10T09:52:45.935Z,79.2367
2023-05-10T09:53:46.222Z,79.4880
2023-05-10T09:54:46.807Z,79.7060
2023-05-10T09:55:47.423Z,79.8910
2023-05-10T09:56:47.536Z,79.8777
2023-05-10T09:57:48.631Z,79.6745
2023-05-10T09:58:49.112Z,78.7028
2023-05-10T09:59:49.597Z,78.2209
2023-05-10T10:00:50.463Z,78.1012
2023-05-10T10:01:51.734Z,78.2658
2023-05-10T10:02:52.350Z,77.5418
2023-05-10T10:03:53.226Z,78.0261
2023-05-10T10:04:54.014Z,77.6704
2023-05-10T10:05:54.291Z,78.0464
2023-05-10T10:06:55.036Z,76.6863
2023-05-10T10:07:55.524Z,76.9501
2023-05-10T10:08:58.462Z,77.4369
2023-05-10T10:09:59.674Z,77.2729
2023-05-10T10:11:00.169Z,76.9628
2023-05-10T10:12:00.715Z,76.6154
2023-05-10T10:13:01.218Z,76.2125
2023-05-10T10:14:01.683Z,76.5967
2023-05-10T10:15:02.224Z,75.4565
2023-05-10T10:16:02.358Z,75.9510
2023-05-10T10:17:09.100Z,74.6858
2023-05-10T10:18:09.215Z,74.5474
2023-05-10T10:19:09.098Z,74.8472
2023-05-10T10:20:11.987Z,74.9588
2023-05-10T10:21:09.615Z,75.0232
2023-05-10T10:22:10.251Z,74.6829
2023-05-10T10:23:10.867Z,73.7798
2023-05-10T10:24:11.213Z,74.0028
2023-05-10T10:25:11.738Z,73.4491
2023-05-10T10:26:12.886Z,73.8840
2023-05-10T10:27:13.415Z,74.0353
2023-05-10T10:28:13.844Z,72.6998
2023-05-10T10:29:14.443Z,72.5444
2023-05-10T10:30:15.065Z,71.6911
2023-05-10T10:31:15.618Z,71.5049
2023-05-10T10:32:16.382Z,72.0566
2023-05-10T10:33:27.708Z,72.0623
2023-05-10T10:34:18.724Z,72.4778
2023-05-10T10:35:19.165Z,71.0150
2023-05-10T10:36:19.771Z,71.1471
2023-05-10T10:37:20.440Z,70.9205
2023-05-10T10:38:20.849Z,70.3131
2023-05-10T10:39:21.399Z,69.4539
2023-05-10T10:40:21.953Z,69.2691
2023-05-10T10:41:22.582Z,69.9133
2023-05-10T10:42:22.940Z,69.7099
2023-05-10T10:43:23.532Z,69.3404
2023-05-10T10:44:24.124Z,69.7117
2023-05-10T10:45:24.722Z,69.7158
2023-05-10T10:46:26.139Z,69.4785
2023-05-10T10:47:27.366Z,70.2070
2023-05-10T10:48:27.419Z,69.9440
2023-05-10T10:49:28.454Z,69.4385
2023-05-10T10:50:29.266Z,68.9762
2023-05-10T10:51:30.376Z,69.1019
2023-05-10T10:52:31.598Z,69.0083
2023-05-10T10:53:32.013Z,69.0375
2023-05-10T10:54:32.162Z,68.6313
2023-05-10T10:55:32.754Z,68.7275
2023-05-10T10:56:35.210Z,68.7307
2023-05-10T10:57:34.445Z,68.9652
2023-05-10T10:58:35.450Z,69.2544
2023-05-10T10:59:36.559Z,69.7584
2023-05-10T11:00:37.852Z,68.2111
2023-05-10T11:01:38.784Z,68.2862
2023-05-10T11:02:39.135Z,69.1553
2023-05-10T11:03:39.430Z,69.8008
2023-05-10T11:04:40.509Z,69.5802
2023-05-10T11:05:40.529Z,69.1719
2023-05-10T11:06:41.715Z,69.0384
2023-05-10T11:07:42.799Z,69.4123
2023-05-10T11:08:43.795Z,68.8779
2023-05-10T11:09:44.887Z,69.4630
2023-05-10T11:10:46.104Z,69.6617
2023-05-10T11:11:47.063Z,69.8205
2023-05-10T11:12:48.192Z,69.8266
2023-05-10T11:13:50.842Z,69.7332
2023-05-10T11:14:50.193Z,69.7147
2023-05-10T11:15:51.258Z,69.7869
2023-05-10T11:16:51.369Z,69.7874
2023-05-10T11:17:52.596Z,70.3364
2023-05-10T11:18:52.650Z,69.9956
2023-05-10T11:19:52.962Z,70.7539
2023-05-10T11:20:53.249Z,70.6212
2023-05-10T11:21:54.594Z,71.2994
2023-05-10T11:22:55.533Z,71.1099
2023-05-10T11:23:56.646Z,70.9147
2023-05-10T11:24:57.178Z,71.4892
2023-05-10T11:25:58.375Z,70.9058
2023-05-10T11:26:59.435Z,72.1454
2023-05-10T11:28:00.637Z,71.6999
2023-05-10T11:29:01.627Z,71.8774
2023-05-10T11:30:05.100Z,71.1084
2023-05-10T11:31:05.313Z,70.1270
2023-05-10T11:32:05.474Z,68.8358
2023-05-10T11:33:06.621Z,68.9701
2023-05-10T11:34:06.693Z,68.3788
2023-05-10T11:35:07.771Z,68.2863
2023-05-10T11:36:08.819Z,67.9723
2023-05-10T11:37:10.164Z,67.9775
2023-05-10T11:38:11.112Z,68.1604
2023-05-10T11:39:12.289Z,68.3256
2023-05-10T11:40:13.548Z,68.4559
2023-05-10T11:41:13.517Z,68.2995
2023-05-10T11:42:14.297Z,67.4453
2023-05-10T11:43:14.314Z,67.6449
2023-05-10T11:44:15.320Z,67.5411
2023-05-10T11:45:16.378Z,68.0108
2023-05-10T11:46:16.411Z,66.5234
2023-05-10T11:47:16.981Z,67.3535
2023-05-10T11:48:18.035Z,67.4550
2023-05-10T11:49:19.124Z,66.9326
2023-05-10T11:50:20.391Z,67.0800
2023-05-10T11:51:21.488Z,67.2263
2023-05-10T11:52:21.716Z,66.8214
2023-05-10T11:53:24.811Z,66.2785
2023-05-10T11:54:22.977Z,65.5492
2023-05-10T11:55:23.975Z,65.8367
2023-05-10T11:56:25.202Z,66.4587
2023-05-10T11:57:25.258Z,66.4936
2023-05-10T11:58:26.445Z,65.9341
2023-05-10T11:59:27.399Z,65.6608
2023-05-10T12:00:27.800Z,64.7877
2023-05-10T12:01:28.761Z,65.1231
2023-05-10T12:02:28.861Z,65.5978
2023-05-10T12:03:30.167Z,65.7181
2023-05-10T12:04:31.017Z,65.2426
2023-05-10T12:05:31.828Z,64.8760
2023-05-10T12:06:31.786Z,64.3320
2023-05-10T12:07:32.945Z,64.3677
2023-05-10T12:08:33.026Z,63.8568
2023-05-10T12:09:43.088Z,62.9721
2023-05-10T12:10:34.306Z,62.0727
2023-05-10T12:11:35.446Z,61.8492
2023-05-10T12:12:36.670Z,62.6036
2023-05-10T12:13:37.897Z,62.9826
2023-05-10T12:14:39.074Z,61.9335
2023-05-10T12:15:40.250Z,61.8144
2023-05-10T12:16:41.851Z,62.6567
2023-05-10T12:17:43.514Z,63.4980
2023-05-10T12:18:43.921Z,62.6459
2023-05-10T12:19:44.608Z,63.2021
2023-05-10T12:20:45.088Z,63.9882
2023-05-10T12:21:46.294Z,64.1839
2023-05-10T12:22:47.470Z,65.3881
2023-05-10T12:23:48.429Z,66.7352
2023-05-10T12:24:49.581Z,66.2427
2023-05-10T12:25:49.618Z,67.8903
2023-05-10T12:26:50.902Z,71.3078
2023-05-10T12:27:52.042Z,73.6448
2023-05-10T12:28:52.038Z,74.6151
2023-05-10T12:29:52.056Z,75.3376
2023-05-10T12:30:53.225Z,75.5724
2023-05-10T12:31:53.403Z,76.1301
2023-05-10T12:32:53.777Z,75.4652
2023-05-10T12:33:55.113Z,75.3942
2023-05-10T12:34:56.031Z,75.0644
2023-05-10T12:35:57.295Z,75.3725
2023-05-10T12:36:58.441Z,75.4541
2023-05-10T12:37:58.461Z,75.3482
2023-05-10T12:38:59.518Z,75.3502
2023-05-10T12:40:00.834Z,76.1350
2023-05-10T12:41:01.026Z,76.3038
2023-05-10T12:42:01.969Z,76.7891
2023-05-10T12:43:02.188Z,77.1589
2023-05-10T12:44:02.412Z,77.2313
2023-05-10T12:45:03.584Z,77.2463
2023-05-10T12:46:04.948Z,77.7631
2023-05-10T12:47:05.035Z,77.9720
2023-05-10T12:48:06.060Z,77.9655
2023-05-10T12:49:11.718Z,78.7027
2023-05-10T12:50:11.879Z,79.2029
2023-05-10T12:51:12.955Z,79.1759
2023-05-10T12:52:14.121Z,78.7467
2023-05-10T12:53:15.290Z,78.1808
2023-05-10T12:54:15.379Z,78.8055
2023-05-10T12:55:16.485Z,79.3501
2023-05-10T12:56:17.702Z,79.5095
2023-05-10T12:57:18.890Z,79.2630
2023-05-10T12:58:35.068Z,79.0753
2023-05-10T12:59:23.778Z,78.5529
2023-05-10T13:00:23.653Z,78.5906
2023-05-10T13:01:23.943Z,78.2431
2023-05-10T13:02:24.050Z,78.1280
2023-05-10T13:03:24.213Z,78.4217
2023-05-10T13:04:25.298Z,78.6722